createdAt,value
2018-09-25T00:01:01.381Z,15.23
2018-09-25T00:03:35.306Z,20.33
2018-09-25T00:06:09.240Z,16.27
2018-09-25T00:08:43.147Z,14.43
2018-09-25T00:11:16.952Z,14.17
2018-09-25T00:13:50.727Z,15.63
2018-09-25T00:16:24.475Z,16.67
2018-09-25T00:18:58.381Z,15.90
2018-09-25T00:21:32.060Z,18.43
2018-09-25T00:24:05.882Z,20.37
2018-09-25T00:26:39.806Z,16.27
2018-09-25T00:29:13.666Z,20.37
2018-09-25T00:31:47.401Z,15.60
2018-09-25T00:34:21.224Z,20.53
2018-09-25T00:36:54.993Z,17.87
2018-09-25T00:39:28.976Z,16.30
2018-09-25T00:42:02.769Z,20.50
2018-09-25T00:44:36.706Z,14.00
2018-09-25T00:47:10.767Z,17.47
2018-09-25T00:49:44.611Z,13.83
2018-09-25T00:52:18.602Z,15.97
2018-09-25T00:54:52.524Z,17.07
2018-09-25T00:57:26.288Z,19.77
2018-09-25T01:00:00.247Z,18.87
2018-09-25T01:02:34.045Z,17.27
2018-09-25T01:05:07.772Z,17.37
2018-09-25T01:07:41.724Z,17.10
2018-09-25T01:10:15.657Z,15.93
2018-09-25T01:12:49.451Z,17.30
2018-09-25T01:15:23.185Z,18.07
2018-09-25T01:17:57.191Z,17.00
2018-09-25T01:20:31.112Z,15.60
2018-09-25T01:23:05.031Z,15.20
2018-09-25T01:25:38.995Z,19.20
2018-09-25T01:28:12.917Z,15.77
2018-09-25T01:30:46.880Z,20.13
2018-09-25T01:33:20.626Z,17.40
2018-09-25T01:35:54.379Z,17.90
2018-09-25T01:38:28.343Z,18.77
2018-09-25T01:41:02.348Z,17.77
2018-09-25T01:43:36.114Z,17.07
2018-09-25T01:46:10.002Z,16.00
2018-09-25T01:48:43.885Z,17.53
2018-09-25T01:51:17.842Z,15.27
2018-09-25T01:53:51.610Z,23.53
2018-09-25T01:56:25.388Z,15.73
2018-09-25T01:58:59.662Z,16.17
2018-09-25T02:01:33.622Z,18.83
2018-09-25T02:04:07.377Z,13.77
2018-09-25T02:06:41.309Z,19.37
2018-09-25T02:09:15.224Z,16.33
2018-09-25T02:11:48.965Z,15.43
2018-09-25T02:14:22.688Z,15.00
2018-09-25T02:16:56.487Z,19.03
2018-09-25T02:19:30.446Z,19.03
2018-09-25T02:22:04.455Z,15.90
2018-09-25T02:24:38.424Z,14.87
2018-09-25T02:27:12.481Z,15.77
2018-09-25T02:29:46.366Z,21.20
2018-09-25T02:32:20.279Z,15.80
2018-09-25T02:34:54.761Z,16.30
2018-09-25T02:37:31.893Z,18.10
2018-09-25T02:40:05.785Z,22.57
2018-09-25T02:42:39.703Z,18.37
2018-09-25T02:45:13.542Z,15.27
2018-09-25T02:47:47.349Z,16.30
2018-09-25T02:50:21.236Z,18.97
2018-09-25T02:52:56.255Z,19.83
2018-09-25T02:55:29.989Z,16.80
2018-09-25T02:58:03.965Z,20.77
2018-09-25T03:00:38.767Z,16.97
2018-09-25T03:03:13.283Z,19.90
2018-09-25T03:05:47.037Z,21.07
2018-09-25T03:08:20.756Z,20.27
2018-09-25T03:10:54.629Z,18.17
2018-09-25T03:13:28.538Z,21.87
2018-09-25T03:16:02.298Z,22.63
2018-09-25T03:18:36.117Z,21.60
2018-09-25T03:21:10.075Z,20.73
2018-09-25T03:23:43.735Z,18.60
2018-09-25T03:26:17.545Z,21.00
2018-09-25T03:28:51.476Z,16.93
2018-09-25T03:31:25.498Z,19.67
2018-09-25T03:33:59.328Z,17.13
2018-09-25T03:36:33.283Z,17.10
2018-09-25T03:39:07.160Z,21.17
2018-09-25T03:41:40.952Z,17.77
2018-09-25T03:44:14.842Z,21.13
2018-09-25T03:46:48.609Z,18.40
2018-09-25T03:49:22.520Z,19.93
2018-09-25T03:51:56.300Z,21.63
2018-09-25T03:54:30.139Z,15.43
2018-09-25T03:57:04.144Z,24.30
2018-09-25T03:59:38.157Z,19.27
2018-09-25T04:02:12.181Z,18.77
2018-09-25T04:04:45.938Z,15.10
2018-09-25T04:07:19.876Z,16.13
2018-09-25T04:09:53.826Z,17.90
2018-09-25T04:12:27.529Z,18.57
2018-09-25T04:15:01.461Z,19.73
2018-09-25T04:17:35.232Z,16.70
2018-09-25T04:20:09.074Z,15.73
2018-09-25T04:22:42.821Z,18.10
2018-09-25T04:25:16.608Z,19.00
2018-09-25T04:27:50.549Z,21.20
2018-09-25T04:30:24.534Z,19.30
2018-09-25T04:32:58.347Z,19.90
2018-09-25T04:35:32.228Z,18.07
2018-09-25T04:38:06.075Z,20.20
2018-09-25T04:40:39.814Z,16.57
2018-09-25T04:43:13.704Z,16.73
2018-09-25T04:45:47.484Z,15.73
2018-09-25T04:48:21.450Z,14.83
2018-09-25T04:50:55.319Z,16.37
2018-09-25T04:53:29.162Z,16.90
2018-09-25T04:56:03.068Z,22.53
2018-09-25T04:58:36.794Z,18.17
2018-09-25T05:01:10.894Z,15.43
2018-09-25T05:03:44.706Z,17.40
2018-09-25T05:06:18.598Z,21.80
2018-09-25T05:08:52.389Z,19.70
2018-09-25T05:11:26.178Z,16.70
2018-09-25T05:14:00.142Z,20.23
2018-09-25T05:16:34.010Z,23.07
2018-09-25T05:19:07.919Z,22.30
2018-09-25T05:21:41.823Z,23.17
2018-09-25T05:24:15.791Z,21.77
2018-09-25T05:26:49.487Z,25.13
2018-09-25T05:29:23.218Z,24.17
2018-09-25T05:31:57.101Z,27.27
2018-09-25T05:34:31.105Z,26.27
2018-09-25T05:37:05.062Z,20.10
2018-09-25T05:39:38.853Z,20.67
2018-09-25T05:42:13.028Z,21.33
2018-09-25T05:44:46.827Z,21.70
2018-09-25T05:47:20.800Z,20.63
2018-09-25T05:49:54.567Z,20.27
2018-09-25T05:52:28.521Z,26.33
2018-09-25T05:55:02.425Z,24.40
2018-09-25T05:57:36.376Z,25.33
2018-09-25T06:00:10.599Z,25.10
2018-09-25T06:02:44.557Z,23.40
2018-09-25T06:05:18.331Z,33.63
2018-09-25T06:07:52.475Z,29.70
2018-09-25T06:10:26.393Z,30.63
2018-09-25T06:13:00.138Z,25.30
2018-09-25T06:15:34.138Z,26.10
2018-09-25T06:18:07.881Z,29.63
2018-09-25T06:20:41.814Z,21.40
2018-09-25T06:23:15.568Z,29.37
2018-09-25T06:25:49.474Z,25.50
2018-09-25T06:28:23.326Z,30.43
2018-09-25T06:30:57.249Z,22.80
2018-09-25T06:33:31.248Z,30.70
2018-09-25T06:36:05.248Z,25.70
2018-09-25T06:38:39.183Z,28.47
2018-09-25T06:41:13.172Z,33.93
2018-09-25T06:43:46.957Z,32.10
2018-09-25T06:46:21.002Z,36.17
2018-09-25T06:48:54.901Z,32.10
2018-09-25T06:51:28.807Z,43.87
2018-09-25T06:54:02.658Z,34.23
2018-09-25T06:56:36.504Z,36.30
2018-09-25T06:59:10.455Z,37.97
2018-09-25T07:01:44.431Z,34.73
2018-09-25T07:04:18.195Z,42.13
2018-09-25T07:06:52.061Z,48.17
2018-09-25T07:09:25.759Z,36.13
2018-09-25T07:11:59.886Z,34.37
2018-09-25T07:14:33.954Z,46.07
2018-09-25T07:17:07.894Z,30.23
2018-09-25T07:19:41.779Z,46.13
2018-09-25T07:22:15.523Z,39.97
2018-09-25T07:24:49.381Z,44.30
2018-09-25T07:27:23.112Z,47.73
2018-09-25T07:29:57.103Z,40.23
2018-09-25T07:32:31.000Z,41.47
2018-09-25T07:35:04.843Z,31.13
2018-09-25T07:37:38.739Z,33.77
2018-09-25T07:40:12.726Z,36.43
2018-09-25T07:42:46.677Z,28.43
2018-09-25T07:45:20.480Z,42.57
2018-09-25T07:47:54.202Z,39.30
2018-09-25T07:50:28.058Z,46.80
2018-09-25T07:53:01.978Z,43.20
2018-09-25T07:55:35.971Z,49.60
2018-09-25T07:58:09.763Z,40.30
2018-09-25T08:00:43.492Z,34.77
2018-09-25T08:03:17.327Z,38.63
2018-09-25T08:05:51.097Z,37.07
2018-09-25T08:08:24.830Z,41.70
2018-09-25T08:10:58.507Z,42.27
2018-09-25T08:13:32.176Z,44.73
2018-09-25T08:16:05.855Z,38.80
2018-09-25T08:18:39.692Z,41.10
2018-09-25T08:21:13.526Z,45.60
2018-09-25T08:23:47.373Z,39.80
2018-09-25T08:26:21.282Z,39.63
2018-09-25T08:28:55.140Z,37.63
2018-09-25T08:31:28.822Z,30.57
2018-09-25T08:34:02.495Z,23.27
2018-09-25T08:36:36.312Z,28.07
2018-09-25T08:39:13.527Z,28.23
2018-09-25T08:41:47.613Z,32.00
2018-09-25T08:44:21.297Z,36.43
2018-09-25T08:46:55.267Z,26.47
2018-09-25T08:49:28.975Z,28.33
2018-09-25T08:52:02.845Z,33.60
2018-09-25T08:54:36.769Z,22.67
2018-09-25T08:57:10.619Z,25.83
2018-09-25T08:59:44.472Z,26.13
2018-09-25T09:02:18.239Z,20.40
2018-09-25T09:04:51.987Z,20.43
2018-09-25T09:07:25.752Z,19.70
2018-09-25T09:09:59.488Z,19.83
2018-09-25T09:12:33.201Z,21.10
2018-09-25T09:15:07.038Z,20.27
2018-09-25T09:17:40.825Z,20.57
2018-09-25T09:20:14.690Z,20.00
2018-09-25T09:22:48.508Z,26.93
2018-09-25T09:25:22.237Z,15.90
2018-09-25T09:27:56.090Z,15.60
2018-09-25T09:30:29.786Z,19.03
2018-09-25T09:33:03.621Z,24.80
2018-09-25T09:35:37.444Z,11.57
2018-09-25T09:38:11.350Z,11.77
2018-09-25T09:40:45.099Z,12.97
2018-09-25T09:43:18.958Z,13.10
2018-09-25T09:45:52.874Z,10.93
2018-09-25T09:48:26.504Z,11.43
2018-09-25T09:51:00.352Z,9.77
2018-09-25T09:53:34.192Z,8.17
2018-09-25T09:56:08.400Z,7.27
2018-09-25T09:58:42.106Z,10.13
2018-09-25T10:01:15.945Z,10.27
2018-09-25T10:03:49.687Z,13.77
2018-09-25T10:06:23.490Z,9.67
2018-09-25T10:08:57.357Z,10.90
2018-09-25T10:11:31.096Z,8.90
2018-09-25T10:14:04.895Z,12.23
2018-09-25T10:16:38.813Z,8.10
2018-09-25T10:19:12.806Z,8.13
2018-09-25T10:21:46.755Z,13.20
2018-09-25T10:24:20.614Z,6.70
2018-09-25T10:26:54.443Z,10.17
2018-09-25T10:29:28.249Z,10.70
2018-09-25T10:32:02.065Z,6.27
2018-09-25T10:34:35.917Z,6.70
2018-09-25T10:37:09.919Z,7.07
2018-09-25T10:39:43.701Z,8.90
2018-09-25T10:42:17.654Z,4.20
2018-09-25T10:44:51.525Z,8.23
2018-09-25T10:47:25.381Z,12.43
2018-09-25T10:49:59.110Z,7.50
2018-09-25T10:52:32.893Z,6.37
2018-09-25T10:55:06.696Z,5.10
2018-09-25T10:57:40.587Z,10.30
2018-09-25T11:00:14.333Z,12.67
2018-09-25T11:02:48.295Z,11.37
2018-09-25T11:05:21.826Z,11.77
2018-09-25T11:07:55.525Z,10.33
2018-09-25T11:10:29.211Z,11.73
2018-09-25T11:13:02.912Z,8.43
2018-09-25T11:15:36.741Z,9.07
2018-09-25T11:18:10.626Z,10.57
2018-09-25T11:20:44.320Z,11.73
2018-09-25T11:23:18.066Z,12.73
2018-09-25T11:25:51.953Z,12.40
2018-09-25T11:28:25.758Z,9.83
2018-09-25T11:30:59.577Z,11.40
2018-09-25T11:33:33.500Z,7.00
2018-09-25T11:36:07.279Z,11.77
2018-09-25T11:38:41.140Z,12.47
2018-09-25T11:41:15.037Z,9.30
2018-09-25T11:43:48.826Z,11.87
2018-09-25T11:46:22.624Z,7.67
2018-09-25T11:48:56.553Z,11.50
2018-09-25T11:51:30.355Z,12.03
2018-09-25T11:54:04.178Z,11.93
2018-09-25T11:56:37.825Z,10.73
2018-09-25T11:59:11.702Z,11.57
2018-09-25T12:01:45.608Z,11.77
2018-09-25T12:04:19.581Z,8.80
2018-09-25T12:06:53.294Z,10.70
2018-09-25T12:09:27.208Z,11.07
2018-09-25T12:12:01.076Z,12.47
2018-09-25T12:14:35.003Z,10.10
2018-09-25T12:17:08.869Z,12.67
2018-09-25T12:19:42.846Z,11.47
2018-09-25T12:22:16.630Z,11.00
2018-09-25T12:24:50.567Z,12.57
2018-09-25T12:27:24.359Z,7.17
2018-09-25T12:29:58.249Z,14.37
2018-09-25T12:32:32.187Z,13.37
2018-09-25T12:35:06.168Z,10.13
2018-09-25T12:37:39.862Z,8.73
2018-09-25T12:40:13.717Z,9.07
2018-09-25T12:42:47.516Z,10.53
2018-09-25T12:45:21.284Z,8.50
2018-09-25T12:47:55.179Z,9.53
2018-09-25T12:50:29.093Z,11.63
2018-09-25T12:53:02.911Z,7.90
2018-09-25T12:55:36.689Z,11.17
2018-09-25T12:58:10.414Z,11.53
2018-09-25T13:00:44.236Z,13.30
2018-09-25T13:03:18.102Z,11.17
2018-09-25T13:05:51.850Z,10.13
2018-09-25T13:08:25.636Z,9.13
2018-09-25T13:10:59.537Z,9.47
2018-09-25T13:13:33.474Z,7.80
2018-09-25T13:16:07.270Z,6.30
2018-09-25T13:18:40.995Z,7.27
2018-09-25T13:21:14.722Z,8.07
2018-09-25T13:23:48.380Z,12.77
2018-09-25T13:26:22.128Z,13.30
2018-09-25T13:28:55.808Z,6.78
2018-09-25T13:31:29.596Z,8.13
2018-09-25T13:34:03.492Z,8.08
2018-09-25T13:36:37.348Z,5.05
2018-09-25T13:39:13.502Z,6.65
2018-09-25T13:41:47.612Z,8.27
2018-09-25T13:44:21.322Z,5.53
2018-09-25T13:46:55.116Z,6.17
2018-09-25T13:49:28.882Z,5.90
2018-09-25T13:52:02.816Z,8.13
2018-09-25T13:54:36.532Z,10.20
2018-09-25T13:57:10.459Z,10.45
2018-09-25T13:59:44.395Z,8.70
2018-09-25T14:02:18.104Z,8.73
2018-09-25T14:04:52.452Z,6.17
2018-09-25T14:07:26.434Z,7.42
2018-09-25T14:10:00.312Z,7.85
2018-09-25T14:12:34.125Z,4.97
2018-09-25T14:15:07.883Z,5.40
2018-09-25T14:17:41.700Z,6.47
2018-09-25T14:20:15.377Z,5.75
2018-09-25T14:22:49.250Z,4.53
2018-09-25T14:25:22.966Z,6.17
2018-09-25T14:27:56.791Z,6.90
2018-09-25T14:30:30.649Z,7.25
2018-09-25T14:33:04.575Z,7.87
2018-09-25T14:35:38.476Z,6.70
2018-09-25T14:38:12.361Z,13.10
2018-09-25T14:40:46.061Z,7.50
2018-09-25T14:43:19.827Z,13.05
2018-09-25T14:45:53.517Z,9.10
2018-09-25T14:48:27.348Z,12.37
2018-09-25T14:51:01.160Z,7.12
2018-09-25T14:53:35.072Z,4.92
2018-09-25T14:56:08.901Z,6.13
2018-09-25T14:58:42.831Z,7.47
2018-09-25T15:01:16.529Z,6.92
2018-09-25T15:03:50.507Z,6.42
2018-09-25T15:06:24.451Z,6.47
2018-09-25T15:08:58.229Z,7.60
2018-09-25T15:11:32.024Z,4.95
2018-09-25T15:14:05.794Z,6.83
2018-09-25T15:16:39.673Z,6.70
2018-09-25T15:19:13.636Z,9.23
2018-09-25T15:21:47.656Z,7.10
2018-09-25T15:24:21.267Z,6.83
2018-09-25T15:26:54.986Z,8.07
2018-09-25T15:29:28.733Z,8.50
2018-09-25T15:32:02.328Z,4.67
2018-09-25T15:34:36.237Z,10.10
2018-09-25T15:37:10.066Z,8.60
2018-09-25T15:39:43.857Z,7.70
2018-09-25T15:42:17.652Z,8.87
2018-09-25T15:44:51.355Z,6.93
2018-09-25T15:47:25.196Z,4.83
2018-09-25T15:49:59.067Z,5.73
2018-09-25T15:52:32.991Z,5.77
2018-09-25T15:55:06.795Z,7.53
2018-09-25T15:57:40.751Z,8.80
2018-09-25T16:00:14.571Z,3.73
2018-09-25T16:02:51.824Z,5.43
2018-09-25T16:08:11.297Z,8.23
2018-09-25T16:10:47.576Z,6.53
2018-09-25T16:13:21.545Z,9.10
2018-09-25T16:15:55.467Z,6.30
2018-09-25T16:18:29.374Z,7.77
2018-09-25T16:21:03.157Z,3.63
2018-09-25T16:23:36.911Z,7.13
2018-09-25T16:26:10.762Z,5.90
2018-09-25T16:28:44.460Z,7.57
2018-09-25T16:31:18.263Z,8.83
2018-09-25T16:33:51.996Z,9.63
2018-09-25T16:36:25.699Z,7.90
2018-09-25T16:38:59.520Z,3.70
2018-09-25T16:41:33.267Z,9.50
2018-09-25T16:44:07.080Z,5.23
2018-09-25T16:46:41.036Z,3.83
2018-09-25T16:49:14.927Z,5.33
2018-09-25T16:51:48.601Z,8.97
2018-09-25T16:54:22.327Z,8.90
2018-09-25T16:56:56.069Z,5.67
2018-09-25T16:59:30.023Z,8.60
2018-09-25T17:02:03.849Z,4.40
2018-09-25T17:04:37.636Z,8.93
2018-09-25T17:07:11.554Z,5.07
2018-09-25T17:09:45.417Z,7.07
2018-09-25T17:12:19.323Z,10.00
2018-09-25T17:14:53.126Z,8.33
2018-09-25T17:17:26.917Z,9.67
2018-09-25T17:20:00.842Z,9.47
2018-09-25T17:22:34.734Z,8.97
2018-09-25T17:25:08.690Z,8.23
2018-09-25T17:27:42.466Z,10.07
2018-09-25T17:30:16.266Z,11.00
2018-09-25T17:32:49.996Z,10.53
2018-09-25T17:35:23.788Z,7.50
2018-09-25T17:37:57.618Z,8.83
2018-09-25T17:40:31.438Z,11.13
2018-09-25T17:43:05.190Z,6.80
2018-09-25T17:45:39.155Z,8.17
2018-09-25T17:48:19.821Z,7.73
2018-09-25T17:50:53.560Z,7.40
2018-09-25T17:53:27.377Z,9.10
2018-09-25T17:56:01.176Z,12.87
2018-09-25T17:58:35.008Z,11.50
2018-09-25T18:01:08.820Z,15.10
2018-09-25T18:03:42.503Z,12.37
2018-09-25T18:06:16.438Z,14.53
2018-09-25T18:08:50.199Z,15.80
2018-09-25T18:11:23.979Z,14.23
2018-09-25T18:13:57.771Z,15.00
2018-09-25T18:16:31.549Z,12.43
2018-09-25T18:19:05.348Z,17.67
2018-09-25T18:21:39.128Z,9.03
2018-09-25T18:24:13.058Z,11.47
2018-09-25T18:26:46.837Z,14.63
2018-09-25T18:29:20.629Z,19.17
2018-09-25T18:31:54.463Z,14.80
2018-09-25T18:34:28.214Z,14.27
2018-09-25T18:37:01.839Z,15.50
2018-09-25T18:39:35.553Z,13.37
2018-09-25T18:42:09.485Z,16.73
2018-09-25T18:44:43.235Z,13.60
2018-09-25T18:47:17.208Z,9.30
2018-09-25T18:49:50.942Z,15.90
2018-09-25T18:52:24.804Z,17.40
2018-09-25T18:54:58.606Z,19.50
2018-09-25T18:57:32.376Z,16.00
2018-09-25T19:00:06.215Z,15.43
2018-09-25T19:02:40.133Z,15.17
2018-09-25T19:05:13.929Z,18.90
2018-09-25T19:07:47.695Z,19.00
2018-09-25T19:10:21.670Z,15.13
2018-09-25T19:12:55.684Z,19.33
2018-09-25T19:15:29.500Z,20.77
2018-09-25T19:18:03.282Z,20.80
2018-09-25T19:20:37.229Z,15.20
2018-09-25T19:23:11.703Z,20.30
2018-09-25T19:25:45.625Z,20.43
2018-09-25T19:28:19.954Z,20.73
2018-09-25T19:30:53.823Z,19.30
2018-09-25T19:33:27.569Z,21.57
2018-09-25T19:36:01.385Z,19.80
2018-09-25T19:38:35.057Z,20.43
2018-09-25T19:41:08.959Z,22.13
2018-09-25T19:43:42.830Z,19.20
2018-09-25T19:46:16.747Z,18.43
2018-09-25T19:48:50.497Z,24.97
2018-09-25T19:51:24.237Z,20.57
2018-09-25T19:53:58.003Z,17.50
2018-09-25T19:56:31.795Z,21.23
2018-09-25T19:59:05.524Z,15.50
2018-09-25T20:01:39.488Z,20.53
2018-09-25T20:04:13.523Z,14.47
2018-09-25T20:06:47.123Z,20.77
2018-09-25T20:09:20.830Z,23.00
2018-09-25T20:11:54.814Z,19.50
2018-09-25T20:14:28.677Z,21.40
2018-09-25T20:17:02.507Z,28.33
2018-09-25T20:19:36.451Z,22.30
2018-09-25T20:22:12.407Z,18.73
2018-09-25T20:24:46.551Z,19.67
2018-09-25T20:27:20.424Z,24.87
2018-09-25T20:29:54.286Z,25.23
2018-09-25T20:32:28.210Z,25.50
2018-09-25T20:35:02.125Z,21.67
2018-09-25T20:37:35.892Z,19.47
2018-09-25T20:40:10.059Z,20.03
2018-09-25T20:42:43.992Z,20.97
2018-09-25T20:45:17.723Z,18.20
2018-09-25T20:47:51.370Z,24.50
2018-09-25T20:50:25.096Z,24.83
2018-09-25T20:52:58.828Z,21.50
2018-09-25T20:55:32.653Z,26.43
2018-09-25T20:58:06.387Z,25.40
2018-09-25T21:00:40.006Z,24.67
2018-09-25T21:03:13.733Z,26.03
2018-09-25T21:05:47.580Z,26.77
2018-09-25T21:08:21.277Z,27.37
2018-09-25T21:10:55.155Z,22.00
2018-09-25T21:13:29.107Z,28.07
2018-09-25T21:16:02.992Z,22.13
2018-09-25T21:18:36.767Z,24.13
2018-09-25T21:21:10.738Z,26.27
2018-09-25T21:23:44.349Z,27.13
2018-09-25T21:26:18.217Z,23.13
2018-09-25T21:28:51.996Z,26.13
2018-09-25T21:31:25.733Z,21.70
2018-09-25T21:33:59.489Z,24.10
2018-09-25T21:36:33.133Z,23.13
2018-09-25T21:39:07.093Z,21.53
2018-09-25T21:41:40.917Z,21.97
2018-09-25T21:44:14.607Z,21.90
2018-09-25T21:46:48.461Z,21.93
2018-09-25T21:49:22.363Z,22.97
2018-09-25T21:51:56.168Z,20.70
2018-09-25T21:54:29.982Z,21.57
2018-09-25T21:57:03.809Z,24.80
2018-09-25T21:59:37.442Z,27.47
2018-09-25T22:02:11.206Z,18.90
2018-09-25T22:04:45.016Z,23.67
2018-09-25T22:07:18.784Z,17.93
2018-09-25T22:09:52.493Z,20.43
2018-09-25T22:12:26.257Z,19.07
2018-09-25T22:15:00.194Z,20.30
2018-09-25T22:17:33.856Z,26.10
2018-09-25T22:20:07.788Z,20.30
2018-09-25T22:22:41.532Z,21.57
2018-09-25T22:25:15.375Z,20.20
2018-09-25T22:27:49.218Z,21.30
2018-09-25T22:30:22.936Z,26.03
2018-09-25T22:32:56.779Z,20.00
2018-09-25T22:35:30.534Z,29.33
2018-09-25T22:38:04.373Z,24.97
2018-09-25T22:40:38.139Z,23.50
2018-09-25T22:43:12.014Z,24.17
2018-09-25T22:45:45.952Z,20.30
2018-09-25T22:48:19.920Z,21.43
2018-09-25T22:50:53.719Z,20.47
2018-09-25T22:53:27.371Z,22.00
2018-09-25T22:56:01.095Z,23.53
2018-09-25T22:58:35.114Z,22.40
2018-09-25T23:01:08.842Z,24.73
2018-09-25T23:03:42.675Z,22.70
2018-09-25T23:06:16.463Z,23.67
2018-09-25T23:08:50.179Z,21.33
2018-09-25T23:11:23.932Z,22.33
2018-09-25T23:13:57.767Z,24.63
2018-09-25T23:16:31.513Z,20.63
2018-09-25T23:19:05.327Z,18.20
2018-09-25T23:21:39.017Z,21.00
2018-09-25T23:24:12.823Z,20.13
2018-09-25T23:26:46.511Z,19.67
2018-09-25T23:29:20.365Z,23.03
2018-09-25T23:31:54.146Z,21.93
2018-09-25T23:34:27.979Z,20.93
2018-09-25T23:37:01.828Z,21.63
2018-09-25T23:39:34.474Z,18.33
2018-09-25T23:43:08.892Z,23.80
2018-09-25T23:45:50.749Z,20.80
2018-09-25T23:48:26.360Z,26.40
2018-09-25T23:51:04.198Z,19.77
2018-09-25T23:53:36.777Z,24.23
2018-09-25T23:56:11.622Z,18.17
2018-09-25T23:58:46.438Z,22.43
